Time;durP1;ratioP1;P1;durP2;ratioP2;P2;SDS_P1;SDS_P2;PMS_P1;PMS_P2;Temp;Humidity;BMP_temperature;BMP_pressure;BME280_temperature;BME280_humidity;BME280_pressure;Samples;Min_cycle;Max_cycle;Signal;HPM_P1;HPM_P2
2023/12/18 00:00:36;;;;;;;1.00;1.00;;;;;;;3.46;100.00;102198.03;5075322;28;20054;-90
2023/12/18 00:03:04;;;;;;;0.98;0.98;;;;;;;3.33;100.00;102174.81;5071556;28;20033;-90
2023/12/18 00:05:29;;;;;;;1.00;1.00;;;;;;;3.39;100.00;102190.78;5056652;28;20032;-90
2023/12/18 00:07:55;;;;;;;1.10;1.10;;;;;;;3.28;100.00;102194.84;5063758;28;20033;-90
2023/12/18 00:10:20;;;;;;;1.13;1.13;;;;;;;3.20;100.00;102188.41;5075718;28;20054;-89
2023/12/18 00:12:46;;;;;;;1.00;1.00;;;;;;;3.25;100.00;102197.34;5076247;28;20048;-89
2023/12/18 00:15:11;;;;;;;1.00;1.00;;;;;;;3.06;100.00;102185.38;5076909;28;20028;-90
2023/12/18 00:17:37;;;;;;;1.05;1.05;;;;;;;2.89;100.00;102149.75;5076349;28;20031;-90
2023/12/18 00:20:03;;;;;;;1.10;1.10;;;;;;;3.16;100.00;102183.91;5077951;28;20091;-90
2023/12/18 00:22:28;;;;;;;1.10;1.10;;;;;;;3.02;100.00;102166.81;5056436;28;20025;-89
2023/12/18 00:24:54;;;;;;;1.10;1.10;;;;;;;3.06;100.00;102181.84;5055828;28;20058;-90
2023/12/18 00:27:19;;;;;;;1.02;1.02;;;;;;;2.98;100.00;102175.44;5055098;28;20036;-89
2023/12/18 00:29:44;;;;;;;1.20;1.20;;;;;;;2.99;100.00;102161.44;5058055;28;20120;-90
2023/12/18 00:32:10;;;;;;;1.20;1.20;;;;;;;2.91;100.00;102168.19;5074672;28;20035;-89
2023/12/18 00:34:35;;;;;;;0.90;0.90;;;;;;;2.83;100.00;102144.31;5075463;28;20088;-89
2023/12/18 00:37:01;;;;;;;1.20;1.20;;;;;;;3.10;100.00;102165.34;5075537;28;20665;-90
2023/12/18 00:39:26;;;;;;;1.10;1.10;;;;;;;3.04;100.00;102152.88;5076807;28;20146;-89
2023/12/18 00:41:51;;;;;;;1.02;1.02;;;;;;;3.19;100.00;102160.34;5075812;28;20123;-90
2023/12/18 00:44:17;;;;;;;1.10;1.10;;;;;;;3.00;100.00;102126.47;5076167;28;20081;-90
2023/12/18 00:46:43;;;;;;;1.20;1.20;;;;;;;3.19;100.00;102160.34;5074713;28;20473;-90
2023/12/18 00:49:09;;;;;;;1.13;1.13;;;;;;;3.06;100.00;102130.16;5074190;28;20025;-89
2023/12/18 00:51:34;;;;;;;1.10;1.10;;;;;;;2.85;100.00;102105.81;5074397;28;20035;-89
2023/12/18 00:54:00;;;;;;;1.00;1.00;;;;;;;2.97;100.00;102144.72;5071468;28;20123;-89
2023/12/18 00:56:25;;;;;;;1.00;1.00;;;;;;;2.83;100.00;102118.03;5075424;28;20043;-90
2023/12/18 00:58:51;;;;;;;1.20;1.20;;;;;;;2.89;100.00;102127.84;5075919;28;20036;-90
2023/12/18 01:01:16;;;;;;;1.20;1.20;;;;;;;2.67;100.00;102079.84;5076417;28;20027;-90
2023/12/18 01:03:42;;;;;;;1.10;1.10;;;;;;;2.97;100.00;102142.09;5076261;28;20040;-90
2023/12/18 01:06:07;;;;;;;1.10;1.10;;;;;;;2.76;100.00;102088.88;5078195;28;20101;-90
2023/12/18 01:08:32;;;;;;;1.05;1.05;;;;;;;2.95;100.00;102128.06;5077341;28;20481;-90
2023/12/18 01:11:01;;;;;;;1.00;1.00;;;;;;;2.85;100.00;102094.44;5077190;28;20041;-89
2023/12/18 01:13:26;;;;;;;1.10;1.10;;;;;;;3.06;100.00;102138.06;5076541;28;20184;-89
2023/12/18 01:15:52;;;;;;;1.02;1.02;;;;;;;3.14;100.00;102140.91;5067141;28;20561;-90
2023/12/18 01:18:17;;;;;;;1.10;1.10;;;;;;;3.26;100.00;102147.44;5060779;28;20045;-90
2023/12/18 01:20:42;;;;;;;1.13;1.13;;;;;;;3.25;100.00;102137.75;5076088;28;20481;-90
2023/12/18 01:23:08;;;;;;;1.10;1.10;;;;;;;2.79;100.00;102074.09;5074931;28;20370;-90
2023/12/18 01:25:33;;;;;;;1.08;1.08;;;;;;;3.06;100.00;102129.25;5070416;28;20031;-90
2023/12/18 01:27:59;;;;;;;1.00;1.00;;;;;;;3.17;100.00;102135.75;5074500;28;20035;-89
2023/12/18 01:30:26;;;;;;;1.00;1.00;;;;;;;3.04;100.00;102110.81;5074501;28;20032;-90
2023/12/18 01:32:51;;;;;;;1.20;1.20;;;;;;;2.82;100.00;102078.56;5073295;28;20097;-90
2023/12/18 01:35:17;;;;;;;1.10;1.10;;;;;;;3.15;100.00;102148.84;5076151;28;20020;-90
2023/12/18 01:37:42;;;;;;;1.10;1.10;;;;;;;3.03;100.00;102130.03;5075730;28;20446;-90
2023/12/18 01:40:08;;;;;;;1.20;1.20;;;;;;;3.08;100.00;102130.22;5063521;28;20078;-90
2023/12/18 01:42:34;;;;;;;1.20;1.20;;;;;;;2.94;100.00;102092.06;5099050;28;20039;-90
2023/12/18 01:44:59;;;;;;;1.13;1.13;;;;;;;3.14;100.00;102130.38;5108227;28;20354;-90
2023/12/18 01:47:25;;;;;;;1.10;1.10;;;;;;;3.05;100.00;102103.84;5099762;28;20027;-91
2023/12/18 01:49:51;;;;;;;1.20;1.20;;;;;;;3.03;100.00;102102.88;5099892;28;20099;-89
2023/12/18 01:52:17;;;;;;;1.00;1.00;;;;;;;3.17;100.00;102114.69;5100355;28;20034;-90
2023/12/18 01:54:44;;;;;;;1.10;1.10;;;;;;;2.99;100.00;102098.38;5101110;28;20465;-90
2023/12/18 01:57:10;;;;;;;1.10;1.10;;;;;;;2.99;100.00;102101.00;5099896;28;20035;-89
2023/12/18 01:59:36;;;;;;;1.15;1.15;;;;;;;2.95;100.00;102102.63;5099580;28;20166;-91
2023/12/18 02:02:02;;;;;;;1.10;1.10;;;;;;;2.96;100.00;102103.53;5100168;28;20024;-90
2023/12/18 02:04:29;;;;;;;1.20;1.20;;;;;;;2.88;100.00;102119.06;5098634;28;20023;-90
2023/12/18 02:06:56;;;;;;;1.10;1.10;;;;;;;2.75;100.00;102097.59;5097956;28;20032;-90
2023/12/18 02:09:22;;;;;;;1.30;1.30;;;;;;;2.84;100.00;102119.81;5098366;28;20016;-90
2023/12/18 02:11:47;;;;;;;1.20;1.20;;;;;;;2.93;100.00;102120.13;5096993;28;20035;-90
2023/12/18 02:14:13;;;;;;;1.10;1.10;;;;;;;2.96;100.00;102117.56;5097811;28;20027;-91
2023/12/18 02:16:38;;;;;;;1.10;1.10;;;;;;;2.74;100.00;102088.81;5095684;28;20029;-89
2023/12/18 02:19:04;;;;;;;1.20;1.20;;;;;;;2.82;100.00;102110.09;5115840;28;20027;-90
2023/12/18 02:21:29;;;;;;;1.20;1.20;;;;;;;2.81;100.00;102114.47;5096617;28;20030;-90
2023/12/18 02:23:55;;;;;;;1.20;1.20;;;;;;;2.69;100.00;102096.56;5097065;28;20400;-90
2023/12/18 02:26:21;;;;;;;1.20;1.20;;;;;;;2.74;100.00;102107.22;5095920;28;20026;-89
2023/12/18 02:28:46;;;;;;;1.13;1.13;;;;;;;2.55;100.00;102087.34;5096485;28;20028;-90
2023/12/18 02:31:15;;;;;;;1.05;1.05;;;;;;;2.62;100.00;102080.53;5095747;28;20019;-90
2023/12/18 02:33:41;;;;;;;1.15;1.15;;;;;;;2.65;100.00;102088.53;5095621;28;20383;-90
2023/12/18 02:36:07;;;;;;;1.02;1.02;;;;;;;2.61;100.00;102090.19;5096094;28;20118;-90
2023/12/18 02:38:33;;;;;;;1.13;1.13;;;;;;;2.47;100.00;102069.56;5095996;28;20190;-89
2023/12/18 02:40:59;;;;;;;1.20;1.20;;;;;;;2.45;100.00;102066.91;5095735;28;20051;-89
2023/12/18 02:43:25;;;;;;;1.20;1.20;;;;;;;2.40;100.00;102052.72;5096455;28;20034;-89
2023/12/18 02:45:50;;;;;;;1.27;1.27;;;;;;;2.53;100.00;102075.91;5095766;28;20539;-90
2023/12/18 02:48:15;;;;;;;1.20;1.20;;;;;;;2.43;100.00;102063.31;5113593;28;20469;-89
2023/12/18 02:50:41;;;;;;;1.20;1.20;;;;;;;2.45;100.00;102061.66;5095229;28;20023;-89
2023/12/18 02:53:06;;;;;;;1.17;1.17;;;;;;;2.48;100.00;102061.75;5107369;28;20027;-90
2023/12/18 02:55:32;;;;;;;1.20;1.20;;;;;;;2.36;100.00;102053.44;5095787;28;20035;-90
2023/12/18 02:57:57;;;;;;;1.15;1.15;;;;;;;2.29;100.00;102043.59;5099320;28;20118;-90
2023/12/18 03:00:23;;;;;;;1.20;1.20;;;;;;;2.20;100.00;102037.16;5095263;28;20023;-90
2023/12/18 03:02:48;;;;;;;1.17;1.17;;;;;;;2.36;100.00;102052.53;5096052;28;20027;-90
2023/12/18 03:05:14;;;;;;;1.33;1.33;;;;;;;2.34;100.00;102044.63;5095278;28;20562;-89
2023/12/18 03:07:40;;;;;;;1.10;1.10;;;;;;;2.36;100.00;102058.69;5113803;28;20511;-90
2023/12/18 03:10:06;;;;;;;1.30;1.30;;;;;;;2.35;100.00;102066.53;5094939;28;20020;-90
2023/12/18 03:12:31;;;;;;;1.00;1.00;;;;;;;2.17;100.00;102037.94;5094593;28;20080;-89
2023/12/18 03:14:57;;;;;;;1.20;1.20;;;;;;;2.35;100.00;102058.66;5094946;28;20123;-89
2023/12/18 03:17:22;;;;;;;1.20;1.20;;;;;;;2.09;100.00;102026.28;5094893;28;20494;-89
2023/12/18 03:19:48;;;;;;;1.30;1.30;;;;;;;2.29;100.00;102064.59;5079667;28;20028;-89
2023/12/18 03:22:13;;;;;;;1.20;1.20;;;;;;;2.29;100.00;102047.97;5079265;28;20027;-89
2023/12/18 03:24:40;;;;;;;1.20;1.20;;;;;;;2.41;100.00;102072.88;5082054;28;20015;-90
2023/12/18 03:27:05;;;;;;;1.25;1.25;;;;;;;2.33;100.00;102045.47;5098357;28;20081;-89
2023/12/18 03:29:31;;;;;;;1.20;1.20;;;;;;;2.06;100.00;101999.06;5116990;28;20537;-90
2023/12/18 03:31:56;;;;;;;1.15;1.15;;;;;;;2.26;100.00;102029.44;5096421;28;20024;-90
2023/12/18 03:34:21;;;;;;;1.27;1.27;;;;;;;2.33;100.00;102039.31;5098079;28;20020;-90
2023/12/18 03:36:47;;;;;;;1.20;1.20;;;;;;;2.42;100.00;102048.38;5098029;28;20429;-89
2023/12/18 03:39:12;;;;;;;1.33;1.33;;;;;;;2.24;100.00;102018.03;5100529;28;20469;-89
2023/12/18 03:41:38;;;;;;;1.30;1.30;;;;;;;2.35;100.00;102014.91;5078557;28;20047;-89
2023/12/18 03:44:03;;;;;;;1.10;1.10;;;;;;;2.54;100.00;102050.50;5090667;28;20047;-89
2023/12/18 03:46:29;;;;;;;1.30;1.30;;;;;;;2.37;100.00;102014.97;5078326;28;20054;-89
2023/12/18 03:48:54;;;;;;;1.20;1.20;;;;;;;2.40;100.00;102004.56;5078534;28;20028;-89
2023/12/18 03:51:20;;;;;;;1.00;1.00;;;;;;;2.60;100.00;102034.97;5078303;28;20077;-89
2023/12/18 03:53:45;;;;;;;1.20;1.20;;;;;;;2.69;100.00;102054.53;5098388;28;20073;-89
2023/12/18 03:56:10;;;;;;;1.20;1.20;;;;;;;2.66;100.00;102043.03;5098317;28;20563;-89
2023/12/18 03:58:36;;;;;;;1.20;1.20;;;;;;;2.62;100.00;102038.50;5096671;28;20046;-89
2023/12/18 04:01:02;;;;;;;1.20;1.20;;;;;;;2.52;100.00;102028.59;5098870;28;20111;-89
2023/12/18 04:03:28;;;;;;;1.20;1.20;;;;;;;2.83;100.00;102062.84;5098956;28;20027;-89
2023/12/18 04:05:53;;;;;;;1.20;1.20;;;;;;;2.70;100.00;102016.91;5098392;28;20023;-89
2023/12/18 04:08:19;;;;;;;1.10;1.10;;;;;;;2.90;100.00;102049.03;5116057;28;20063;-90
2023/12/18 04:10:44;;;;;;;1.15;1.15;;;;;;;2.84;100.00;102047.97;5098302;28;20456;-90
2023/12/18 04:13:09;;;;;;;1.13;1.13;;;;;;;2.90;100.00;102054.28;5098500;28;20526;-90
2023/12/18 04:15:35;;;;;;;1.10;1.10;;;;;;;2.90;100.00;102062.19;5098714;28;20097;-89
2023/12/18 04:18:00;;;;;;;1.20;1.20;;;;;;;2.76;100.00;102042.47;5097994;28;20023;-89
2023/12/18 04:20:26;;;;;;;1.20;1.20;;;;;;;2.77;100.00;102043.38;5098207;28;20049;-89
2023/12/18 04:22:51;;;;;;;1.10;1.10;;;;;;;2.69;100.00;102022.09;5099170;28;20027;-89
2023/12/18 04:25:17;;;;;;;1.20;1.20;;;;;;;2.81;100.00;102034.72;5098927;28;20114;-89
2023/12/18 04:27:43;;;;;;;1.20;1.20;;;;;;;2.79;100.00;102036.41;5115673;28;20016;-90
2023/12/18 04:30:09;;;;;;;1.30;1.30;;;;;;;2.73;100.00;102024.88;5078216;28;20027;-90
2023/12/18 04:32:34;;;;;;;1.25;1.25;;;;;;;2.89;100.00;102051.63;5077379;28;20072;-90
2023/12/18 04:35:00;;;;;;;1.20;1.20;;;;;;;2.74;100.00;102023.13;5077530;28;20069;-90
2023/12/18 04:37:25;;;;;;;1.15;1.15;;;;;;;2.80;100.00;102033.81;5083768;28;20032;-89
2023/12/18 04:39:51;;;;;;;1.20;1.20;;;;;;;2.91;100.00;102053.47;5097003;28;20063;-90
2023/12/18 04:42:16;;;;;;;1.40;1.40;;;;;;;2.68;100.00;102022.97;5079112;28;20060;-89
2023/12/18 04:44:42;;;;;;;1.17;1.17;;;;;;;2.68;100.00;102015.94;5056822;28;20060;-90
2023/12/18 04:47:07;;;;;;;1.00;1.00;;;;;;;2.26;100.00;101971.69;5072059;28;20042;-89
2023/12/18 04:49:32;;;;;;;1.10;1.10;;;;;;;2.63;100.00;102059.59;5073928;28;20042;-90
2023/12/18 04:51:58;;;;;;;1.27;1.27;;;;;;;2.53;100.00;102049.66;5073588;28;20032;-89
2023/12/18 04:54:23;;;;;;;1.10;1.10;;;;;;;2.51;100.00;102051.31;5055755;28;20482;-90
2023/12/18 04:56:49;;;;;;;1.20;1.20;;;;;;;2.58;100.00;102053.31;5053578;28;20032;-89
2023/12/18 04:59:14;;;;;;;1.17;1.17;;;;;;;2.51;100.00;102030.31;5053936;28;20116;-90
2023/12/18 05:01:40;;;;;;;1.10;1.10;;;;;;;2.26;100.00;101996.22;5064368;28;20036;-89
2023/12/18 05:04:05;;;;;;;1.30;1.30;;;;;;;2.45;100.00;102013.47;5074689;28;20559;-90
2023/12/18 05:06:31;;;;;;;1.25;1.25;;;;;;;2.69;100.00;102057.16;5074048;28;20059;-89
2023/12/18 05:08:56;;;;;;;1.20;1.20;;;;;;;2.51;100.00;102030.31;5073338;28;20485;-90
2023/12/18 05:11:24;;;;;;;1.23;1.23;;;;;;;2.70;100.00;102053.69;5073901;28;20040;-90
2023/12/18 05:13:50;;;;;;;1.30;1.30;;;;;;;2.48;100.00;102024.97;5069172;28;20021;-90
2023/12/18 05:16:16;;;;;;;1.20;1.20;;;;;;;2.58;100.00;102044.53;5053535;28;20036;-90
2023/12/18 05:18:42;;;;;;;1.10;1.10;;;;;;;2.58;100.00;102048.06;5053625;28;20029;-89
2023/12/18 05:21:09;;;;;;;1.20;1.20;;;;;;;2.59;100.00;102060.34;5071401;28;20020;-89
2023/12/18 05:23:35;;;;;;;1.20;1.20;;;;;;;2.07;100.00;101965.00;5064806;28;20032;-90
2023/12/18 05:26:01;;;;;;;1.30;1.30;;;;;;;2.21;100.00;102005.69;5061226;28;20020;-90
2023/12/18 05:28:27;;;;;;;1.20;1.20;;;;;;;2.65;100.00;102070.16;5076014;28;20032;-90
2023/12/18 05:30:53;;;;;;;1.25;1.25;;;;;;;2.60;100.00;102058.63;5073272;28;20032;-90
2023/12/18 05:33:19;;;;;;;1.30;1.30;;;;;;;1.96;100.00;101958.47;5073805;28;20393;-89
2023/12/18 05:35:44;;;;;;;1.20;1.20;;;;;;;2.64;100.00;102055.22;5071011;28;20055;-90
2023/12/18 05:38:11;;;;;;;1.05;1.05;;;;;;;2.53;100.00;102044.41;5054880;28;20064;-89
2023/12/18 05:40:37;;;;;;;1.20;1.20;;;;;;;2.43;100.00;102026.56;5052985;28;20032;-90
2023/12/18 05:43:06;;;;;;;1.30;1.30;;;;;;;2.60;100.00;102046.34;5095448;28;20031;-90
2023/12/18 05:45:32;;;;;;;1.17;1.17;;;;;;;2.67;100.00;102048.34;5076887;28;20020;-90
2023/12/18 05:47:58;;;;;;;1.20;1.20;;;;;;;2.36;100.00;102029.81;5096269;28;20027;-90
2023/12/18 05:50:24;;;;;;;1.15;1.15;;;;;;;2.38;100.00;102043.91;5096485;28;20114;-89
2023/12/18 05:52:49;;;;;;;1.30;1.30;;;;;;;2.46;100.00;102058.16;5096532;28;20157;-90
2023/12/18 05:55:15;;;;;;;1.30;1.30;;;;;;;1.91;100.00;101960.06;5096948;28;20112;-90
2023/12/18 05:57:41;;;;;;;1.20;1.20;;;;;;;2.35;100.00;102056.94;5093208;28;20020;-89
2023/12/18 06:00:07;;;;;;;1.05;1.05;;;;;;;2.30;100.00;102042.75;5093296;28;20687;-90
2023/12/18 06:02:33;;;;;;;1.50;1.50;;;;;;;2.26;100.00;102037.34;5096970;28;20406;-91
2023/12/18 06:04:59;;;;;;;1.30;1.30;;;;;;;2.04;100.00;102033.09;5096703;28;20072;-89
2023/12/18 06:07:25;;;;;;;1.30;1.30;;;;;;;2.13;100.00;102064.00;5102304;28;20821;-90
2023/12/18 06:09:50;;;;;;;1.30;1.30;;;;;;;2.06;100.00;102049.78;5096659;28;20104;-90
2023/12/18 06:12:16;;;;;;;1.30;1.30;;;;;;;1.99;100.00;102052.16;5096818;28;20030;-89
2023/12/18 06:14:41;;;;;;;1.40;1.40;;;;;;;1.95;100.00;102040.69;5114256;28;20028;-90
2023/12/18 06:17:07;;;;;;;1.33;1.33;;;;;;;1.56;100.00;101978.97;5095971;28;20026;-91
2023/12/18 06:19:34;;;;;;;1.20;1.20;;;;;;;1.94;100.00;102054.66;5095532;28;20047;-89
2023/12/18 06:22:00;;;;;;;1.40;1.40;;;;;;;1.94;100.00;102038.91;5096250;28;20012;-89
2023/12/18 06:24:25;;;;;;;1.20;1.20;;;;;;;1.96;100.00;102050.31;5097271;28;20031;-90
2023/12/18 06:26:52;;;;;;;1.30;1.30;;;;;;;1.96;100.00;102052.94;5096452;28;20027;-90
2023/12/18 06:29:18;;;;;;;1.40;1.40;;;;;;;1.89;100.00;102040.47;5097065;28;20047;-90
2023/12/18 06:31:44;;;;;;;1.30;1.30;;;;;;;1.96;100.00;102052.94;5095594;28;20055;-91
2023/12/18 06:34:11;;;;;;;1.30;1.30;;;;;;;1.96;100.00;102052.06;5095814;28;20046;-91
2023/12/18 06:36:36;;;;;;;1.40;1.40;;;;;;;1.97;100.00;102041.63;5114448;28;20024;-90
2023/12/18 06:39:03;;;;;;;1.30;1.30;;;;;;;1.96;100.00;102036.34;5108007;28;20041;-90
2023/12/18 06:41:28;;;;;;;1.20;1.20;;;;;;;1.62;100.00;101976.56;5096137;28;20036;-89
2023/12/18 06:43:54;;;;;;;1.48;1.48;;;;;;;1.94;100.00;102033.66;5095748;28;20160;-90
2023/12/18 06:46:19;;;;;;;1.20;1.20;;;;;;;2.18;100.00;102071.22;5096092;28;20039;-90
2023/12/18 06:48:45;;;;;;;1.30;1.30;;;;;;;2.23;100.00;102085.38;5097483;28;20016;-91
2023/12/18 06:51:10;;;;;;;1.30;1.30;;;;;;;2.22;100.00;102080.09;5096615;28;20016;-90
2023/12/18 06:53:36;;;;;;;1.20;1.20;;;;;;;2.24;100.00;102086.28;5102055;28;20031;-91
2023/12/18 06:56:01;;;;;;;1.23;1.23;;;;;;;2.08;100.00;102069.13;5099861;28;20086;-89
2023/12/18 06:58:27;;;;;;;1.40;1.40;;;;;;;2.04;100.00;102071.59;5081162;28;20020;-90
2023/12/18 07:00:52;;;;;;;1.40;1.40;;;;;;;2.04;100.00;102082.09;5099521;28;20031;-89
2023/12/18 07:03:18;;;;;;;1.40;1.40;;;;;;;1.99;100.00;102058.31;5100071;28;20054;-91
2023/12/18 07:05:43;;;;;;;1.30;1.30;;;;;;;1.95;100.00;102082.66;5105315;28;20020;-91
2023/12/18 07:08:09;;;;;;;1.20;1.20;;;;;;;2.03;100.00;102091.69;5079853;28;20024;-90
2023/12/18 07:10:34;;;;;;;1.30;1.30;;;;;;;2.09;100.00;102096.25;5083057;28;20116;-90
2023/12/18 07:12:59;;;;;;;1.20;1.20;;;;;;;2.13;100.00;102095.50;5099503;28;20045;-91
2023/12/18 07:15:25;;;;;;;1.20;1.20;;;;;;;2.23;100.00;102090.63;5099495;28;20068;-91
2023/12/18 07:17:51;;;;;;;1.20;1.20;;;;;;;2.10;100.00;102062.19;5085478;28;20123;-91
2023/12/18 07:20:17;;;;;;;1.27;1.27;;;;;;;2.30;100.00;102092.66;5078981;28;20032;-90
2023/12/18 07:22:42;;;;;;;1.30;1.30;;;;;;;2.21;100.00;102081.81;5102078;28;20030;-90
2023/12/18 07:25:11;;;;;;;1.20;1.20;;;;;;;2.21;100.00;102076.56;5099126;28;20027;-90
2023/12/18 07:27:36;;;;;;;1.23;1.23;;;;;;;2.27;100.00;102079.38;5099431;28;20426;-90
2023/12/18 07:30:06;;;;;;;1.30;1.30;;;;;;;2.23;100.00;102069.63;5099126;28;20024;-90
2023/12/18 07:32:32;;;;;;;1.38;1.38;;;;;;;2.21;100.00;102050.31;5086224;28;20024;-91
2023/12/18 07:34:59;;;;;;;1.20;1.20;;;;;;;2.49;100.00;102095.03;5088138;28;20110;-89
2023/12/18 07:37:29;;;;;;;1.20;1.20;;;;;;;2.34;100.00;102073.50;5098570;28;20019;-90
2023/12/18 07:39:58;;;;;;;1.20;1.20;;;;;;;2.54;100.00;102092.53;5109868;28;20023;-90
2023/12/18 07:42:23;;;;;;;1.33;1.33;;;;;;;2.45;100.00;102085.28;5074136;28;20148;-90
2023/12/18 07:44:49;;;;;;;1.20;1.20;;;;;;;2.58;100.00;102102.31;5075823;28;20131;-91
2023/12/18 07:47:15;;;;;;;1.30;1.30;;;;;;;2.63;100.00;102120.03;5093786;28;20020;-91
2023/12/18 07:49:41;;;;;;;1.20;1.20;;;;;;;2.54;100.00;102098.69;5095087;28;20115;-90
2023/12/18 07:52:06;;;;;;;1.20;1.20;;;;;;;2.58;100.00;102100.59;5094896;28;20120;-91
2023/12/18 07:54:32;;;;;;;1.10;1.10;;;;;;;2.60;100.00;102113.78;5094694;28;20473;-90
2023/12/18 07:56:57;;;;;;;1.30;1.30;;;;;;;2.51;100.00;102088.09;5094866;28;20381;-90
2023/12/18 07:59:23;;;;;;;1.20;1.20;;;;;;;2.72;100.00;102114.16;5088747;28;20024;-90
2023/12/18 08:01:48;;;;;;;1.20;1.20;;;;;;;2.57;100.00;102096.16;5091907;28;20116;-90
2023/12/18 08:04:14;;;;;;;1.17;1.17;;;;;;;2.68;100.00;102094.75;5074760;28;20032;-91
2023/12/18 08:06:39;;;;;;;1.25;1.25;;;;;;;2.58;100.00;102084.84;5094696;28;20027;-91
2023/12/18 08:09:05;;;;;;;1.40;1.40;;;;;;;2.70;100.00;102111.47;5093334;28;20323;-91
2023/12/18 08:11:30;;;;;;;1.20;1.20;;;;;;;2.32;100.00;102046.28;5084883;28;20730;-91
2023/12/18 08:13:56;;;;;;;1.10;1.10;;;;;;;2.28;100.00;102027.78;5095080;28;20035;-89
2023/12/18 08:16:23;;;;;;;1.23;1.23;;;;;;;2.87;100.00;102116.41;5082402;28;20090;-90
2023/12/18 08:18:48;;;;;;;1.13;1.13;;;;;;;2.73;100.00;102084.44;5075065;28;20060;-90
2023/12/18 08:21:14;;;;;;;1.08;1.08;;;;;;;3.03;100.00;102110.78;5094634;28;20389;-91
2023/12/18 08:23:41;;;;;;;1.10;1.10;;;;;;;2.98;100.00;102108.00;5094824;28;20499;-90
2023/12/18 08:26:06;;;;;;;1.00;1.00;;;;;;;3.02;100.00;102101.09;5094416;28;20028;-91
2023/12/18 08:28:32;;;;;;;1.17;1.17;;;;;;;3.11;100.00;102125.03;5094522;28;20022;-90
2023/12/18 08:30:57;;;;;;;1.15;1.15;;;;;;;3.10;100.00;102120.66;5094998;28;20069;-92
2023/12/18 08:33:22;;;;;;;1.00;1.00;;;;;;;3.03;100.00;102102.88;5096740;28;20020;-90
2023/12/18 08:35:48;;;;;;;1.20;1.20;;;;;;;2.98;100.00;102080.81;5093872;28;20119;-91
2023/12/18 08:38:14;;;;;;;1.15;1.15;;;;;;;3.05;100.00;102098.56;5093994;28;20058;-90
2023/12/18 08:40:39;;;;;;;1.20;1.20;;;;;;;2.99;100.00;102094.00;5098207;28;20032;-90
2023/12/18 08:43:05;;;;;;;1.13;1.13;;;;;;;3.07;100.00;102108.28;5102710;28;20023;-90
2023/12/18 08:45:30;;;;;;;1.13;1.13;;;;;;;2.96;100.00;102093.03;5103435;28;20028;-91
2023/12/18 08:47:59;;;;;;;1.20;1.20;;;;;;;2.83;100.00;102078.63;5101559;28;20054;-91
2023/12/18 08:50:26;;;;;;;1.20;1.20;;;;;;;2.81;100.00;102064.53;5102194;28;20101;-91
2023/12/18 08:52:53;;;;;;;1.20;1.20;;;;;;;2.79;100.00;102057.44;5100741;28;20027;-91
2023/12/18 08:55:19;;;;;;;1.20;1.20;;;;;;;2.91;100.00;102066.59;5104006;28;20457;-90
2023/12/18 08:57:44;;;;;;;1.20;1.20;;;;;;;2.91;100.00;102077.13;5107047;28;20368;-91
2023/12/18 09:00:11;;;;;;;1.15;1.15;;;;;;;3.06;100.00;102108.25;5105296;28;20110;-91
2023/12/18 09:02:36;;;;;;;1.20;1.20;;;;;;;3.10;100.00;102102.25;5106466;28;20168;-90
2023/12/18 09:05:02;;;;;;;1.25;1.25;;;;;;;3.12;100.00;102090.00;5109827;28;20051;-91
2023/12/18 09:07:27;;;;;;;1.20;1.20;;;;;;;3.13;100.00;102086.56;5106820;28;20019;-91
2023/12/18 09:09:53;;;;;;;1.13;1.13;;;;;;;3.10;100.00;102081.22;5129950;28;20012;-91
2023/12/18 09:12:18;;;;;;;1.20;1.20;;;;;;;3.27;100.00;102106.25;5126134;28;20027;-91
2023/12/18 09:14:44;;;;;;;1.20;1.20;;;;;;;3.10;100.00;102086.47;5124274;28;20024;-91
2023/12/18 09:17:09;;;;;;;1.10;1.10;;;;;;;3.19;100.00;102086.72;5110043;28;20027;-91
2023/12/18 09:19:35;;;;;;;1.00;1.00;;;;;;;3.22;100.00;102097.34;5111856;28;20026;-91
2023/12/18 09:22:01;;;;;;;1.20;1.20;;;;;;;3.20;100.00;102088.50;5112825;28;20106;-91
2023/12/18 09:24:26;;;;;;;1.10;1.10;;;;;;;3.22;100.00;102085.09;5111440;28;20107;-91
2023/12/18 09:26:52;;;;;;;1.20;1.20;;;;;;;3.29;100.00;102089.69;5107100;28;20038;-90
2023/12/18 09:29:18;;;;;;;1.20;1.20;;;;;;;3.41;100.00;102095.28;5096291;28;20028;-91
2023/12/18 09:31:43;;;;;;;1.20;1.20;;;;;;;3.51;100.00;102099.09;5100934;28;20138;-91
2023/12/18 09:34:09;;;;;;;1.20;1.20;;;;;;;3.57;100.00;102080.84;5101115;28;20846;-91
2023/12/18 09:42:16;;;;;;;1.02;1.02;;;;;;;4.39;100.00;102082.22;2027684;22;20327;-93
2023/12/18 09:44:51;;;;;;;1.00;1.00;;;;;;;5.42;100.00;102076.72;5139491;22;20047;-91
2023/12/18 09:47:17;;;;;;;0.98;0.98;;;;;;;5.79;100.00;102042.25;4971233;28;20502;-92
2023/12/18 09:49:43;;;;;;;0.90;0.90;;;;;;;6.37;100.00;102071.56;4986726;28;20042;-92
2023/12/18 09:52:11;;;;;;;1.10;1.10;;;;;;;6.54;100.00;102049.81;4983521;28;20011;-91
2023/12/18 09:54:40;;;;;;;0.95;0.95;;;;;;;6.98;100.00;102037.28;4974014;28;20023;-91
2023/12/18 09:57:07;;;;;;;0.90;0.90;;;;;;;7.82;100.00;102064.81;4963563;29;20074;-91
2023/12/18 09:59:33;;;;;;;0.90;0.90;;;;;;;8.22;96.18;102062.59;4961633;29;20740;-91
2023/12/18 10:01:59;;;;;;;0.90;0.90;;;;;;;7.97;89.60;102069.41;4949383;29;20107;-91
2023/12/18 10:04:24;;;;;;;0.80;0.80;;;;;;;7.72;88.24;102057.66;4982210;28;20038;-91
2023/12/18 10:06:50;;;;;;;0.80;0.80;;;;;;;8.01;88.09;102024.41;4980470;28;20062;-91
2023/12/18 10:09:18;;;;;;;0.85;0.85;;;;;;;8.99;85.51;102053.50;4973600;28;20023;-91
2023/12/18 10:11:47;;;;;;;0.80;0.80;;;;;;;8.77;82.55;102020.63;4975668;28;20037;-91
2023/12/18 10:14:16;;;;;;;0.80;0.80;;;;;;;8.97;81.80;102055.25;4981882;28;20027;-92
2023/12/18 10:16:42;;;;;;;0.77;0.77;;;;;;;8.66;77.90;102038.25;4981977;28;20061;-92
2023/12/18 10:19:08;;;;;;;0.70;0.70;;;;;;;7.58;79.25;102032.75;4957815;28;20031;-93
2023/12/18 10:21:34;;;;;;;0.80;0.80;;;;;;;7.36;82.06;102028.09;4955090;29;20047;-91
2023/12/18 10:24:00;;;;;;;0.80;0.80;;;;;;;7.44;82.54;102050.25;4955902;28;20035;-91
2023/12/18 10:26:26;;;;;;;0.70;0.70;;;;;;;6.79;84.17;102048.44;4976031;28;20027;-92
2023/12/18 10:28:51;;;;;;;0.85;0.85;;;;;;;6.41;86.44;102026.69;4964217;28;20047;-92
2023/12/18 10:31:18;;;;;;;0.90;0.90;;;;;;;6.41;88.21;102008.19;4961978;29;20027;-91
2023/12/18 10:33:43;;;;;;;0.95;0.95;;;;;;;6.43;89.65;102005.56;4977424;28;20117;-92
2023/12/18 10:36:09;;;;;;;0.90;0.90;;;;;;;6.44;89.79;102012.66;4979448;28;20057;-91
2023/12/18 10:38:38;;;;;;;0.80;0.80;;;;;;;6.65;91.22;102007.69;4988462;28;20019;-91
2023/12/18 10:41:04;;;;;;;1.00;1.00;;;;;;;7.06;90.57;102017.09;4998096;28;20817;-92
2023/12/18 10:43:35;;;;;;;0.90;0.90;;;;;;;7.47;90.42;102010.56;4979240;28;20819;-92
2023/12/18 10:46:02;;;;;;;0.80;0.80;;;;;;;8.48;89.83;101984.19;4978450;28;20046;-91
2023/12/18 10:48:28;;;;;;;0.90;0.90;;;;;;;9.70;79.74;101988.31;4978529;28;20026;-92
2023/12/18 10:50:56;;;;;;;0.90;0.90;;;;;;;10.11;75.44;101989.31;4977729;28;20022;-91
2023/12/18 10:53:23;;;;;;;0.80;0.80;;;;;;;10.90;71.84;101975.91;4976636;28;20033;-91
2023/12/18 10:55:49;;;;;;;0.57;0.57;;;;;;;12.36;67.06;101983.09;4983116;28;20026;-92
2023/12/18 10:58:19;;;;;;;0.80;0.80;;;;;;;13.21;60.27;101931.44;5011230;28;20018;-92
2023/12/18 11:00:45;;;;;;;0.80;0.80;;;;;;;13.92;56.21;101965.19;5003208;28;20022;-91
2023/12/18 11:03:15;;;;;;;0.80;0.80;;;;;;;13.79;55.22;101970.78;4984125;28;20023;-91
2023/12/18 11:05:42;;;;;;;0.60;0.60;;;;;;;14.25;53.98;101950.41;4985508;28;20078;-91
2023/12/18 11:08:07;;;;;;;0.70;0.70;;;;;;;14.88;52.91;101957.31;5012885;28;20073;-91
2023/12/18 11:10:34;;;;;;;0.65;0.65;;;;;;;15.32;51.45;101954.59;4997900;28;20031;-90
2023/12/18 11:13:15;;;;;;;0.50;0.50;;;;;;;15.29;51.26;101960.03;4981609;28;20109;-91
2023/12/18 11:15:51;;;;;;;0.60;0.60;;;;;;;15.14;49.44;101960.34;4986451;28;20035;-90
2023/12/18 11:18:36;;;;;;;0.50;0.50;;;;;;;15.59;51.74;101954.06;4981880;28;20045;-91
2023/12/18 11:21:01;;;;;;;0.57;0.57;;;;;;;15.49;48.91;101931.03;4998310;28;20031;-91
2023/12/18 11:23:27;;;;;;;0.50;0.50;;;;;;;15.50;49.41;101918.50;4985511;28;20053;-91
2023/12/18 11:25:53;;;;;;;0.50;0.50;;;;;;;15.44;49.91;101898.06;4984360;28;20031;-91